createdAt,value
2023-04-28T00:02:27.196Z,101875.44
2023-04-28T00:07:31.640Z,101869.78
2023-04-28T00:12:37.886Z,101859.53
2023-04-28T00:17:42.291Z,101857.34
2023-04-28T00:22:46.832Z,101859.50
2023-04-28T00:27:53.346Z,101853.69
2023-04-28T00:32:57.793Z,101852.44
2023-04-28T00:38:04.573Z,101854.38
2023-04-28T00:43:08.707Z,101846.66
2023-04-28T00:48:16.030Z,101841.72
2023-04-28T00:53:20.049Z,101840.88
2023-04-28T00:58:21.839Z,101828.22
2023-04-28T01:03:23.695Z,101826.09
2023-04-28T01:08:33.291Z,101817.81
2023-04-28T01:13:38.600Z,101806.41
2023-04-28T01:18:49.899Z,101809.03
2023-04-28T01:23:52.135Z,101807.56
2023-04-28T01:28:56.044Z,101803.13
2023-04-28T01:34:02.062Z,101797.00
2023-04-28T01:39:06.340Z,101789.25
2023-04-28T01:44:11.866Z,101785.88
2023-04-28T01:49:15.850Z,101776.03
2023-04-28T01:54:20.257Z,101775.06
2023-04-28T01:59:27.070Z,101765.09
2023-04-28T02:04:28.985Z,101751.84
2023-04-28T02:09:33.284Z,101754.16
2023-04-28T02:14:37.390Z,101751.50
2023-04-28T02:19:39.077Z,101748.84
2023-04-28T02:24:40.947Z,101739.22
2023-04-28T02:29:42.648Z,101737.78
2023-04-28T02:34:44.317Z,101726.09
2023-04-28T02:39:46.357Z,101720.81
2023-04-28T02:44:51.495Z,101711.09
2023-04-28T02:49:55.535Z,101696.16
2023-04-28T02:55:03.897Z,101679.53
2023-04-28T03:00:06.686Z,101678.09
2023-04-28T03:05:16.600Z,101667.28
2023-04-28T03:10:18.430Z,101661.00
2023-04-28T03:15:22.379Z,101655.59
2023-04-28T03:20:26.744Z,101654.31
2023-04-28T03:25:31.018Z,101639.97
2023-04-28T03:30:35.889Z,101629.50
2023-04-28T03:35:37.563Z,101620.47
2023-04-28T03:40:39.410Z,101605.75
2023-04-28T03:45:43.688Z,101597.47
2023-04-28T03:50:47.618Z,101590.59
2023-04-28T03:55:49.939Z,101585.28
2023-04-28T04:00:57.192Z,101571.00
2023-04-28T04:06:01.916Z,101563.63
2023-04-28T04:11:03.656Z,101562.84
2023-04-28T04:16:10.420Z,101542.56
2023-04-28T04:21:16.528Z,101549.63
2023-04-28T04:26:21.000Z,101544.97
2023-04-28T04:31:25.050Z,101536.13
2023-04-28T04:36:29.179Z,101548.19
2023-04-28T04:41:33.183Z,101540.38
2023-04-28T04:47:07.510Z,101537.28
2023-04-28T04:52:12.922Z,101528.09
2023-04-28T04:57:14.766Z,101524.16
2023-04-28T05:02:35.270Z,101522.19
2023-04-28T05:07:39.298Z,101513.94
2023-04-28T05:12:41.371Z,101506.09
2023-04-28T05:17:50.473Z,101505.28
2023-04-28T05:22:52.821Z,101503.75
2023-04-28T05:27:57.830Z,101503.88
2023-04-28T05:33:04.922Z,101497.72
2023-04-28T05:38:07.201Z,101492.38
2023-04-28T05:43:09.045Z,101485.38
2023-04-28T05:48:11.050Z,101485.34
2023-04-28T05:53:16.277Z,101489.50
2023-04-28T05:58:21.297Z,101478.81
2023-04-28T06:03:25.585Z,101489.09
2023-04-28T06:08:32.297Z,101487.34
2023-04-28T06:13:38.953Z,101486.31
2023-04-28T06:18:43.004Z,101478.91
2023-04-28T06:23:47.352Z,101470.81
2023-04-28T06:28:52.106Z,101466.34
2023-04-28T06:33:56.254Z,101469.47
2023-04-28T06:39:00.825Z,101467.38
2023-04-28T06:44:05.474Z,101457.31
2023-04-28T06:49:10.065Z,101460.66
2023-04-28T06:54:13.953Z,101452.06
2023-04-28T06:59:18.707Z,101450.47
2023-04-28T07:04:21.012Z,101439.72
2023-04-28T07:09:26.015Z,101446.25
2023-04-28T07:14:30.543Z,101441.94
2023-04-28T07:19:32.428Z,101434.13
2023-04-28T07:24:34.340Z,101430.16
2023-04-28T07:29:39.010Z,101441.19
2023-04-28T07:34:43.000Z,101426.22
2023-04-28T07:39:47.324Z,101425.25
2023-04-28T07:44:51.918Z,101433.63
2023-04-28T07:49:53.659Z,101429.63
2023-04-28T07:54:57.801Z,101424.25
2023-04-28T08:00:02.049Z,101415.59
2023-04-28T08:05:16.102Z,101400.63
2023-04-28T08:10:20.485Z,101403.41
2023-04-28T08:15:22.419Z,101390.41
2023-04-28T08:20:24.889Z,101395.38
2023-04-28T08:25:26.757Z,101384.41
2023-04-28T08:30:28.510Z,101391.47
2023-04-28T08:35:30.344Z,101379.50
2023-04-28T08:40:34.382Z,101375.69
2023-04-28T08:45:44.233Z,101375.28
2023-04-28T08:50:56.083Z,101368.19
2023-04-28T08:55:58.380Z,101367.91
2023-04-28T09:01:04.676Z,101361.91
2023-04-28T09:06:08.815Z,101360.38
2023-04-28T09:11:12.551Z,101365.50
2023-04-28T09:16:17.110Z,101357.25
2023-04-28T09:21:19.169Z,101350.84
2023-04-28T09:26:25.812Z,101347.50
2023-04-28T09:31:29.585Z,101338.94
2023-04-28T09:36:31.461Z,101343.44
2023-04-28T09:41:38.352Z,101337.41
2023-04-28T09:46:42.446Z,101337.28
2023-04-28T09:51:50.268Z,101324.38
2023-04-28T09:56:52.395Z,101306.09
2023-04-28T10:02:00.899Z,101312.81
2023-04-28T10:07:14.535Z,101307.13
2023-04-28T10:12:18.952Z,101304.22
2023-04-28T10:17:29.652Z,101296.22
2023-04-28T10:22:53.511Z,101303.06
2023-04-28T10:27:56.352Z,101300.94
2023-04-28T10:33:15.623Z,101295.94
2023-04-28T10:38:19.036Z,101286.78
2023-04-28T10:43:30.993Z,101285.75
2023-04-28T10:48:36.994Z,101275.94
2023-04-28T10:53:45.088Z,101267.16
2023-04-28T10:58:51.765Z,101264.78
2023-04-28T11:04:03.173Z,101260.81
2023-04-28T11:09:20.315Z,101255.91
2023-04-28T11:14:22.102Z,101258.66
2023-04-28T11:19:33.283Z,101249.34
2023-04-28T11:24:41.125Z,101239.06
2023-04-28T11:29:49.159Z,101234.75
2023-04-28T11:34:52.178Z,101239.84
2023-04-28T11:39:57.427Z,101235.88
2023-04-28T11:44:59.249Z,101233.66
2023-04-28T11:50:06.623Z,101241.66
2023-04-28T11:55:08.708Z,101236.84
2023-04-28T12:00:14.771Z,101225.88
2023-04-28T12:05:24.817Z,101229.94
2023-04-28T12:10:26.769Z,101221.78
2023-04-28T12:15:40.967Z,101219.09
2023-04-28T12:20:43.563Z,101206.78
2023-04-28T12:25:46.319Z,101202.06
2023-04-28T12:30:48.227Z,101200.19
2023-04-28T12:35:50.086Z,101194.09
2023-04-28T12:40:56.966Z,101194.09
2023-04-28T12:46:00.440Z,101190.66
2023-04-28T12:51:06.758Z,101181.78
2023-04-28T12:56:11.043Z,101187.19
2023-04-28T13:01:13.508Z,101178.56
2023-04-28T13:06:15.534Z,101178.13
2023-04-28T13:11:22.864Z,101167.56
2023-04-28T13:16:33.893Z,101156.03
2023-04-28T13:21:36.638Z,101152.03
2023-04-28T13:26:44.186Z,101155.28
2023-04-28T13:31:46.203Z,101139.75
2023-04-28T13:36:54.134Z,101142.03
2023-04-28T13:41:58.303Z,101136.53
2023-04-28T13:47:00.926Z,101135.66
2023-04-28T13:52:03.637Z,101135.13
2023-04-28T13:57:05.553Z,101136.06
2023-04-28T14:02:09.552Z,101125.84
2023-04-28T14:07:13.861Z,101133.22
2023-04-28T14:12:20.872Z,101122.09
2023-04-28T14:17:22.814Z,101122.91
2023-04-28T14:22:24.774Z,101119.84
2023-04-28T14:27:29.344Z,101114.50
2023-04-28T14:32:31.211Z,101116.53
2023-04-28T14:37:35.604Z,101118.06
2023-04-28T14:42:40.624Z,101119.44
2023-04-28T14:47:51.654Z,101120.28
2023-04-28T14:52:56.161Z,101124.16
2023-04-28T14:58:00.629Z,101114.59
2023-04-28T15:03:04.047Z,101122.66
2023-04-28T15:08:13.507Z,101113.56
2023-04-28T15:13:15.601Z,101100.53
2023-04-28T15:18:18.136Z,101094.34
2023-04-28T15:23:24.631Z,101096.75
2023-04-28T15:28:34.612Z,101094.06
2023-04-28T15:33:40.833Z,101102.38
2023-04-28T15:38:45.589Z,101105.34
2023-04-28T15:43:51.760Z,101108.31
2023-04-28T15:48:55.822Z,101106.75
2023-04-28T15:53:57.787Z,101095.44
2023-04-28T15:59:01.875Z,101101.03
2023-04-28T16:04:12.849Z,101094.44
2023-04-28T16:09:16.917Z,101098.19
2023-04-28T16:14:21.638Z,101084.19
2023-04-28T16:19:25.979Z,101070.75
2023-04-28T16:24:28.821Z,101078.31
2023-04-28T16:29:34.978Z,101082.63
2023-04-28T16:34:36.751Z,101077.97
2023-04-28T16:39:38.657Z,101070.66
2023-04-28T16:44:40.429Z,101073.50
2023-04-28T16:49:44.575Z,101057.97
2023-04-28T16:54:48.789Z,101061.06
2023-04-28T16:59:51.170Z,101062.63
2023-04-28T17:04:57.517Z,101065.59
2023-04-28T17:10:01.897Z,101060.25
2023-04-28T17:15:04.187Z,101048.81
2023-04-28T17:20:09.261Z,101043.81
2023-04-28T17:25:12.185Z,101046.22
2023-04-28T17:30:14.203Z,101040.75
2023-04-28T17:35:16.303Z,101048.63
2023-04-28T17:40:18.770Z,101047.69
2023-04-28T17:45:22.723Z,101054.91
2023-04-28T17:50:26.886Z,101049.47
2023-04-28T17:55:32.586Z,101069.25
2023-04-28T18:00:35.110Z,101072.44
2023-04-28T18:05:39.306Z,101063.91
2023-04-28T18:10:46.249Z,101056.91
2023-04-28T18:15:48.354Z,101064.69
2023-04-28T18:20:50.239Z,101071.22
2023-04-28T18:25:55.015Z,101061.84
2023-04-28T18:30:58.906Z,101057.75
2023-04-28T18:36:06.135Z,101052.63
2023-04-28T18:41:15.704Z,101052.66
2023-04-28T18:46:17.904Z,101055.53
2023-04-28T18:51:20.199Z,101061.56
2023-04-28T18:56:29.206Z,101065.28
2023-04-28T19:01:31.499Z,101061.59
2023-04-28T19:06:33.804Z,101076.16
2023-04-28T19:11:35.627Z,101078.31
2023-04-28T19:16:37.371Z,101091.88
2023-04-28T19:21:42.629Z,101094.53
2023-04-28T19:26:44.287Z,101101.88
2023-04-28T19:31:46.069Z,101105.53
2023-04-28T19:36:47.973Z,101114.22
2023-04-28T19:41:50.785Z,101114.22
2023-04-28T19:46:52.669Z,101107.22
2023-04-28T19:51:58.561Z,101106.56
2023-04-28T19:57:05.405Z,101110.41
2023-04-28T20:02:08.400Z,101109.56
2023-04-28T20:07:13.146Z,101106.22
2023-04-28T20:12:17.776Z,101114.41
2023-04-28T20:17:22.278Z,101127.94
2023-04-28T20:22:24.281Z,101120.75
2023-04-28T20:27:27.005Z,101133.28
2023-04-28T20:32:31.278Z,101137.78
2023-04-28T20:37:33.370Z,101153.97
2023-04-28T20:42:37.491Z,101142.47
2023-04-28T20:47:39.804Z,101146.97
2023-04-28T20:52:44.197Z,101145.28
2023-04-28T20:57:50.641Z,101161.66
2023-04-28T21:02:52.697Z,101159.16
2023-04-28T21:07:57.691Z,101151.97
2023-04-28T21:12:59.483Z,101157.81
2023-04-28T21:18:06.216Z,101163.97
2023-04-28T21:23:10.246Z,101179.53
2023-04-28T21:28:11.987Z,101179.16
2023-04-28T21:33:16.003Z,101178.84
2023-04-28T21:38:19.922Z,101181.81
2023-04-28T21:43:24.037Z,101182.00
2023-04-28T21:48:25.769Z,101188.34
2023-04-28T21:53:30.575Z,101194.53
2023-04-28T21:58:38.385Z,101187.66
2023-04-28T22:03:45.281Z,101193.19
2023-04-28T22:08:47.086Z,101192.53
2023-04-28T22:13:48.868Z,101195.34
2023-04-28T22:18:50.514Z,101202.53
2023-04-28T22:23:52.177Z,101214.38
2023-04-28T22:29:06.564Z,101222.53
2023-04-28T22:34:09.932Z,101218.53
2023-04-28T22:39:11.937Z,101227.53
2023-04-28T22:44:18.455Z,101237.19
2023-04-28T22:49:28.677Z,101235.84
2023-04-28T22:54:31.880Z,101239.69
2023-04-28T22:59:33.545Z,101242.50
2023-04-28T23:04:40.135Z,101230.19
2023-04-28T23:09:42.261Z,101242.84
2023-04-28T23:14:47.392Z,101251.69
2023-04-28T23:19:51.436Z,101258.19
2023-04-28T23:24:55.683Z,101260.19
2023-04-28T23:30:06.823Z,101266.53
2023-04-28T23:35:10.887Z,101272.84
2023-04-28T23:40:15.386Z,101273.19
2023-04-28T23:45:21.633Z,101292.16
2023-04-28T23:50:23.932Z,101301.31
2023-04-28T23:55:28.059Z,101301.66
